sensor_id;sensor_type;location;lat;lon;timestamp;temperature;humidity
5023;DHT22;2530;47.990;7.866;2023-02-26T00:02:12;3.30;1.00
5023;DHT22;2530;47.990;7.866;2023-02-26T00:04:37;3.30;1.00
5023;DHT22;2530;47.990;7.866;2023-02-26T00:07:03;3.10;1.00
5023;DHT22;2530;47.990;7.866;2023-02-26T00:09:30;3.40;94.80
5023;DHT22;2530;47.990;7.866;2023-02-26T00:11:57;3.20;99.90
5023;DHT22;2530;47.990;7.866;2023-02-26T00:14:23;3.40;1.00
5023;DHT22;2530;47.990;7.866;2023-02-26T00:19:32;3.70;1.00
5023;DHT22;2530;47.990;7.866;2023-02-26T00:21:58;3.20;99.90
5023;DHT22;2530;47.990;7.866;2023-02-26T00:24:24;2.30;1.00
5023;DHT22;2530;47.990;7.866;2023-02-26T00:26:49;2.90;1.00
5023;DHT22;2530;47.990;7.866;2023-02-26T00:29:15;3.10;1.00
5023;DHT22;2530;47.990;7.866;2023-02-26T00:31:41;3.10;1.00
5023;DHT22;2530;47.990;7.866;2023-02-26T00:34:11;3.10;1.00
5023;DHT22;2530;47.990;7.866;2023-02-26T00:36:42;3.00;1.00
5023;DHT22;2530;47.990;7.866;2023-02-26T00:39:37;3.00;1.00
5023;DHT22;2530;47.990;7.866;2023-02-26T00:42:06;2.80;1.00
5023;DHT22;2530;47.990;7.866;2023-02-26T00:44:32;2.80;1.00
5023;DHT22;2530;47.990;7.866;2023-02-26T00:47:10;2.50;1.00
5023;DHT22;2530;47.990;7.866;2023-02-26T00:49:54;2.60;1.00
5023;DHT22;2530;47.990;7.866;2023-02-26T00:52:41;2.50;1.00
5023;DHT22;2530;47.990;7.866;2023-02-26T00:55:08;2.70;1.00
5023;DHT22;2530;47.990;7.866;2023-02-26T00:57:34;2.40;1.00
5023;DHT22;2530;47.990;7.866;2023-02-26T00:59:59;2.60;99.90
5023;DHT22;2530;47.990;7.866;2023-02-26T01:02:25;2.30;1.00
5023;DHT22;2530;47.990;7.866;2023-02-26T01:04:51;2.70;99.90
5023;DHT22;2530;47.990;7.866;2023-02-26T01:07:20;2.50;99.90
5023;DHT22;2530;47.990;7.866;2023-02-26T01:09:48;2.40;1.00
5023;DHT22;2530;47.990;7.866;2023-02-26T01:12:14;2.30;1.00
5023;DHT22;2530;47.990;7.866;2023-02-26T01:14:42;2.30;1.00
5023;DHT22;2530;47.990;7.866;2023-02-26T01:17:15;2.20;99.90
5023;DHT22;2530;47.990;7.866;2023-02-26T01:19:57;2.30;1.00
5023;DHT22;2530;47.990;7.866;2023-02-26T01:22:45;2.10;99.90
5023;DHT22;2530;47.990;7.866;2023-02-26T01:25:17;2.10;1.00
5023;DHT22;2530;47.990;7.866;2023-02-26T01:27:44;1.90;1.00
5023;DHT22;2530;47.990;7.866;2023-02-26T01:30:10;1.80;99.90
5023;DHT22;2530;47.990;7.866;2023-02-26T01:32:48;1.70;1.00
5023;DHT22;2530;47.990;7.866;2023-02-26T01:35:31;1.40;1.00
5023;DHT22;2530;47.990;7.866;2023-02-26T01:38:31;1.60;99.90
5023;DHT22;2530;47.990;7.866;2023-02-26T01:41:02;1.50;1.00
5023;DHT22;2530;47.990;7.866;2023-02-26T01:49:00;1.40;1.00
5023;DHT22;2530;47.990;7.866;2023-02-26T01:51:54;1.30;99.90
5023;DHT22;2530;47.990;7.866;2023-02-26T01:54:35;1.10;1.00
5023;DHT22;2530;47.990;7.866;2023-02-26T01:57:05;1.50;66.90
5023;DHT22;2530;47.990;7.866;2023-02-26T01:59:32;1.50;1.00
5023;DHT22;2530;47.990;7.866;2023-02-26T02:02:01;1.20;99.90
5023;DHT22;2530;47.990;7.866;2023-02-26T02:04:30;1.20;99.90
5023;DHT22;2530;47.990;7.866;2023-02-26T02:06:57;1.20;1.00
5023;DHT22;2530;47.990;7.866;2023-02-26T02:09:22;1.70;1.00
5023;DHT22;2530;47.990;7.866;2023-02-26T02:14:55;1.40;13.40
5023;DHT22;2530;47.990;7.866;2023-02-26T02:28:30;1.20;99.90
5023;DHT22;2530;47.990;7.866;2023-02-26T02:34:03;1.60;99.90
5023;DHT22;2530;47.990;7.866;2023-02-26T02:39:12;1.80;99.90
5023;DHT22;2530;47.990;7.866;2023-02-26T02:41:52;1.20;99.90
5023;DHT22;2530;47.990;7.866;2023-02-26T02:44:21;1.20;1.00
5023;DHT22;2530;47.990;7.866;2023-02-26T02:46:51;1.20;1.00
5023;DHT22;2530;47.990;7.866;2023-02-26T02:49:32;1.60;99.90
5023;DHT22;2530;47.990;7.866;2023-02-26T02:52:09;1.10;1.00
5023;DHT22;2530;47.990;7.866;2023-02-26T02:54:39;1.30;1.00
5023;DHT22;2530;47.990;7.866;2023-02-26T02:57:19;1.30;1.00
5023;DHT22;2530;47.990;7.866;2023-02-26T02:59:48;1.20;1.00
5023;DHT22;2530;47.990;7.866;2023-02-26T03:02:25;1.50;99.90
5023;DHT22;2530;47.990;7.866;2023-02-26T03:04:52;1.30;4.00
5023;DHT22;2530;47.990;7.866;2023-02-26T03:07:18;1.20;1.00
5023;DHT22;2530;47.990;7.866;2023-02-26T03:09:44;1.60;1.00
5023;DHT22;2530;47.990;7.866;2023-02-26T03:12:11;1.20;1.00
5023;DHT22;2530;47.990;7.866;2023-02-26T03:14:37;1.20;99.90
5023;DHT22;2530;47.990;7.866;2023-02-26T03:17:30;1.10;1.00
5023;DHT22;2530;47.990;7.866;2023-02-26T03:20:25;1.20;97.90
5023;DHT22;2530;47.990;7.866;2023-02-26T03:25:23;1.30;99.90
5023;DHT22;2530;47.990;7.866;2023-02-26T03:28:19;1.10;1.00
5023;DHT22;2530;47.990;7.866;2023-02-26T03:31:38;1.50;1.00
5023;DHT22;2530;47.990;7.866;2023-02-26T03:33:53;1.20;1.00
5023;DHT22;2530;47.990;7.866;2023-02-26T03:36:29;1.20;99.90
5023;DHT22;2530;47.990;7.866;2023-02-26T03:39:02;1.50;1.00
5023;DHT22;2530;47.990;7.866;2023-02-26T03:41:34;1.00;1.00
5023;DHT22;2530;47.990;7.866;2023-02-26T03:44:08;2.40;84.30
5023;DHT22;2530;47.990;7.866;2023-02-26T03:46:40;1.10;99.90
5023;DHT22;2530;47.990;7.866;2023-02-26T03:49:23;1.70;1.00
5023;DHT22;2530;47.990;7.866;2023-02-26T03:51:50;1.40;1.00
5023;DHT22;2530;47.990;7.866;2023-02-26T03:54:53;1.30;99.90
5023;DHT22;2530;47.990;7.866;2023-02-26T03:57:15;1.10;1.00
5023;DHT22;2530;47.990;7.866;2023-02-26T03:59:40;1.40;1.00
5023;DHT22;2530;47.990;7.866;2023-02-26T04:02:12;1.30;99.90
5023;DHT22;2530;47.990;7.866;2023-02-26T04:04:43;1.40;99.90
5023;DHT22;2530;47.990;7.866;2023-02-26T04:07:11;1.20;99.90
5023;DHT22;2530;47.990;7.866;2023-02-26T04:09:41;1.10;1.00
5023;DHT22;2530;47.990;7.866;2023-02-26T04:12:06;1.10;1.00
5023;DHT22;2530;47.990;7.866;2023-02-26T04:14:32;1.20;99.90
5023;DHT22;2530;47.990;7.866;2023-02-26T04:16:57;1.10;99.90
5023;DHT22;2530;47.990;7.866;2023-02-26T04:19:23;1.60;99.90
5023;DHT22;2530;47.990;7.866;2023-02-26T04:21:49;0.90;1.00
5023;DHT22;2530;47.990;7.866;2023-02-26T04:24:14;1.00;1.00
5023;DHT22;2530;47.990;7.866;2023-02-26T04:26:40;1.10;1.00
5023;DHT22;2530;47.990;7.866;2023-02-26T04:29:05;1.30;1.00
5023;DHT22;2530;47.990;7.866;2023-02-26T04:31:31;1.30;99.90
5023;DHT22;2530;47.990;7.866;2023-02-26T04:33:56;1.30;1.00
5023;DHT22;2530;47.990;7.866;2023-02-26T04:36:22;1.10;1.00
5023;DHT22;2530;47.990;7.866;2023-02-26T04:38:47;0.80;1.00
5023;DHT22;2530;47.990;7.866;2023-02-26T04:41:13;1.10;1.00
5023;DHT22;2530;47.990;7.866;2023-02-26T04:43:38;0.80;99.90
5023;DHT22;2530;47.990;7.866;2023-02-26T04:46:04;0.90;1.00
5023;DHT22;2530;47.990;7.866;2023-02-26T04:48:30;0.70;1.00
5023;DHT22;2530;47.990;7.866;2023-02-26T04:50:55;1.00;1.00
5023;DHT22;2530;47.990;7.866;2023-02-26T04:53:21;0.90;99.90
5023;DHT22;2530;47.990;7.866;2023-02-26T04:55:47;1.40;1.00
5023;DHT22;2530;47.990;7.866;2023-02-26T04:58:13;0.80;1.00
5023;DHT22;2530;47.990;7.866;2023-02-26T05:00:38;1.10;99.90
5023;DHT22;2530;47.990;7.866;2023-02-26T05:03:04;1.20;99.90
5023;DHT22;2530;47.990;7.866;2023-02-26T05:05:30;0.80;1.00
5023;DHT22;2530;47.990;7.866;2023-02-26T05:07:56;0.80;1.00
5023;DHT22;2530;47.990;7.866;2023-02-26T05:10:22;1.00;99.90
5023;DHT22;2530;47.990;7.866;2023-02-26T05:12:48;0.80;99.90
5023;DHT22;2530;47.990;7.866;2023-02-26T05:15:14;0.80;99.90
5023;DHT22;2530;47.990;7.866;2023-02-26T05:17:39;0.90;1.00
5023;DHT22;2530;47.990;7.866;2023-02-26T05:20:05;0.90;1.00
5023;DHT22;2530;47.990;7.866;2023-02-26T05:22:35;0.60;99.90
5023;DHT22;2530;47.990;7.866;2023-02-26T05:25:00;0.30;1.00
5023;DHT22;2530;47.990;7.866;2023-02-26T05:27:26;0.60;1.00
5023;DHT22;2530;47.990;7.866;2023-02-26T05:29:51;0.70;1.00
5023;DHT22;2530;47.990;7.866;2023-02-26T05:32:17;0.60;1.00
5023;DHT22;2530;47.990;7.866;2023-02-26T05:34:42;0.60;1.00
5023;DHT22;2530;47.990;7.866;2023-02-26T05:37:08;0.50;1.00
5023;DHT22;2530;47.990;7.866;2023-02-26T05:39:33;0.30;1.00
5023;DHT22;2530;47.990;7.866;2023-02-26T05:41:59;0.80;1.00
5023;DHT22;2530;47.990;7.866;2023-02-26T05:44:24;0.40;1.00
5023;DHT22;2530;47.990;7.866;2023-02-26T05:46:50;0.60;1.00
5023;DHT22;2530;47.990;7.866;2023-02-26T05:51:41;0.50;99.90
5023;DHT22;2530;47.990;7.866;2023-02-26T05:54:08;0.50;1.00
5023;DHT22;2530;47.990;7.866;2023-02-26T05:56:34;0.40;1.00
5023;DHT22;2530;47.990;7.866;2023-02-26T05:58:59;0.30;1.00
5023;DHT22;2530;47.990;7.866;2023-02-26T06:01:25;0.10;99.90
5023;DHT22;2530;47.990;7.866;2023-02-26T06:03:50;0.60;1.00
5023;DHT22;2530;47.990;7.866;2023-02-26T06:06:16;0.20;1.00
5023;DHT22;2530;47.990;7.866;2023-02-26T06:08:43;0.20;1.00
5023;DHT22;2530;47.990;7.866;2023-02-26T06:11:09;0.20;1.00
5023;DHT22;2530;47.990;7.866;2023-02-26T06:13:35;0.40;1.00
5023;DHT22;2530;47.990;7.866;2023-02-26T06:16:00;0.20;1.00
5023;DHT22;2530;47.990;7.866;2023-02-26T06:18:26;0.30;1.00
5023;DHT22;2530;47.990;7.866;2023-02-26T06:20:52;0.20;1.00
5023;DHT22;2530;47.990;7.866;2023-02-26T06:23:17;0.30;1.00
5023;DHT22;2530;47.990;7.866;2023-02-26T06:25:50;0.30;1.00
5023;DHT22;2530;47.990;7.866;2023-02-26T06:28:17;0.40;99.90
5023;DHT22;2530;47.990;7.866;2023-02-26T06:30:42;0.50;1.00
5023;DHT22;2530;47.990;7.866;2023-02-26T06:33:08;0.30;1.00
5023;DHT22;2530;47.990;7.866;2023-02-26T06:35:33;0.20;99.90
5023;DHT22;2530;47.990;7.866;2023-02-26T06:37:59;0.30;1.00
5023;DHT22;2530;47.990;7.866;2023-02-26T06:40:24;0.10;1.00
5023;DHT22;2530;47.990;7.866;2023-02-26T06:42:50;0.40;1.00
5023;DHT22;2530;47.990;7.866;2023-02-26T06:45:15;0.20;99.90
5023;DHT22;2530;47.990;7.866;2023-02-26T06:47:41;0.30;1.00
5023;DHT22;2530;47.990;7.866;2023-02-26T06:50:07;0.10;1.00
5023;DHT22;2530;47.990;7.866;2023-02-26T06:52:33;0.30;1.00
5023;DHT22;2530;47.990;7.866;2023-02-26T06:54:59;0.20;99.90
5023;DHT22;2530;47.990;7.866;2023-02-26T06:57:25;0.50;1.00
5023;DHT22;2530;47.990;7.866;2023-02-26T06:59:50;0.50;1.00
5023;DHT22;2530;47.990;7.866;2023-02-26T07:02:17;0.30;1.00
5023;DHT22;2530;47.990;7.866;2023-02-26T07:04:43;0.60;1.00
5023;DHT22;2530;47.990;7.866;2023-02-26T07:07:10;0.30;1.00
5023;DHT22;2530;47.990;7.866;2023-02-26T07:09:35;0.60;1.00
5023;DHT22;2530;47.990;7.866;2023-02-26T07:12:01;0.60;1.00
5023;DHT22;2530;47.990;7.866;2023-02-26T07:14:27;0.60;1.00
5023;DHT22;2530;47.990;7.866;2023-02-26T07:16:52;0.80;1.00
5023;DHT22;2530;47.990;7.866;2023-02-26T07:19:18;1.00;1.00
5023;DHT22;2530;47.990;7.866;2023-02-26T07:21:43;0.70;1.00
5023;DHT22;2530;47.990;7.866;2023-02-26T07:24:09;0.80;1.00
5023;DHT22;2530;47.990;7.866;2023-02-26T07:26:34;0.80;1.00
5023;DHT22;2530;47.990;7.866;2023-02-26T07:29:00;1.30;1.00
5023;DHT22;2530;47.990;7.866;2023-02-26T07:31:25;1.10;1.00
5023;DHT22;2530;47.990;7.866;2023-02-26T07:33:51;1.40;1.00
5023;DHT22;2530;47.990;7.866;2023-02-26T07:36:16;1.20;1.00
5023;DHT22;2530;47.990;7.866;2023-02-26T07:38:42;1.00;1.00
5023;DHT22;2530;47.990;7.866;2023-02-26T07:41:07;1.00;1.00
5023;DHT22;2530;47.990;7.866;2023-02-26T07:43:33;1.10;1.00
5023;DHT22;2530;47.990;7.866;2023-02-26T07:45:58;1.00;1.00
5023;DHT22;2530;47.990;7.866;2023-02-26T07:48:24;1.10;1.00
5023;DHT22;2530;47.990;7.866;2023-02-26T07:50:53;1.20;1.00
5023;DHT22;2530;47.990;7.866;2023-02-26T07:53:19;1.00;1.00
5023;DHT22;2530;47.990;7.866;2023-02-26T07:55:44;0.80;1.00
5023;DHT22;2530;47.990;7.866;2023-02-26T07:58:10;0.90;1.00
5023;DHT22;2530;47.990;7.866;2023-02-26T08:00:35;1.30;1.00
5023;DHT22;2530;47.990;7.866;2023-02-26T08:03:01;1.00;1.00
5023;DHT22;2530;47.990;7.866;2023-02-26T08:05:27;1.40;1.00
5023;DHT22;2530;47.990;7.866;2023-02-26T08:07:52;1.20;1.00
5023;DHT22;2530;47.990;7.866;2023-02-26T08:10:18;1.60;1.00
5023;DHT22;2530;47.990;7.866;2023-02-26T08:12:43;1.30;1.00
5023;DHT22;2530;47.990;7.866;2023-02-26T08:15:10;1.40;1.00
5023;DHT22;2530;47.990;7.866;2023-02-26T08:17:39;1.70;1.00
5023;DHT22;2530;47.990;7.866;2023-02-26T08:20:05;1.30;99.90
5023;DHT22;2530;47.990;7.866;2023-02-26T08:22:31;1.30;1.00
5023;DHT22;2530;47.990;7.866;2023-02-26T08:27:22;1.40;1.00
5023;DHT22;2530;47.990;7.866;2023-02-26T08:29:48;1.50;1.00
5023;DHT22;2530;47.990;7.866;2023-02-26T08:32:15;1.60;1.00
5023;DHT22;2530;47.990;7.866;2023-02-26T08:34:42;1.40;1.00
5023;DHT22;2530;47.990;7.866;2023-02-26T08:37:07;1.70;99.90
5023;DHT22;2530;47.990;7.866;2023-02-26T08:39:36;1.50;1.00
5023;DHT22;2530;47.990;7.866;2023-02-26T08:42:04;3.10;13.10
5023;DHT22;2530;47.990;7.866;2023-02-26T08:44:30;1.70;1.00
5023;DHT22;2530;47.990;7.866;2023-02-26T08:46:56;1.50;1.00
5023;DHT22;2530;47.990;7.866;2023-02-26T08:49:21;1.90;1.00
5023;DHT22;2530;47.990;7.866;2023-02-26T08:51:47;1.80;1.00
5023;DHT22;2530;47.990;7.866;2023-02-26T08:54:13;1.90;99.90
5023;DHT22;2530;47.990;7.866;2023-02-26T08:56:38;2.20;99.90
5023;DHT22;2530;47.990;7.866;2023-02-26T08:59:04;2.00;1.00
5023;DHT22;2530;47.990;7.866;2023-02-26T09:01:30;1.80;99.90
5023;DHT22;2530;47.990;7.866;2023-02-26T09:03:55;1.90;99.90
5023;DHT22;2530;47.990;7.866;2023-02-26T09:06:21;2.10;99.90
5023;DHT22;2530;47.990;7.866;2023-02-26T09:08:47;1.80;99.90
5023;DHT22;2530;47.990;7.866;2023-02-26T09:11:13;1.60;99.90
5023;DHT22;2530;47.990;7.866;2023-02-26T09:13:39;1.70;99.90
5023;DHT22;2530;47.990;7.866;2023-02-26T09:16:05;1.70;99.90
5023;DHT22;2530;47.990;7.866;2023-02-26T09:18:30;1.80;99.90
5023;DHT22;2530;47.990;7.866;2023-02-26T09:20:56;1.90;99.90
5023;DHT22;2530;47.990;7.866;2023-02-26T09:23:21;1.90;99.90
5023;DHT22;2530;47.990;7.866;2023-02-26T09:25:54;2.60;99.90
5023;DHT22;2530;47.990;7.866;2023-02-26T09:28:21;2.30;99.90
5023;DHT22;2530;47.990;7.866;2023-02-26T09:30:49;2.70;99.90
5023;DHT22;2530;47.990;7.866;2023-02-26T09:33:15;3.70;99.90
5023;DHT22;2530;47.990;7.866;2023-02-26T09:35:40;2.40;99.90
5023;DHT22;2530;47.990;7.866;2023-02-26T09:38:06;2.20;99.90
5023;DHT22;2530;47.990;7.866;2023-02-26T09:43:33;2.20;99.90
5023;DHT22;2530;47.990;7.866;2023-02-26T09:46:05;2.10;99.90
5023;DHT22;2530;47.990;7.866;2023-02-26T09:48:33;2.30;99.90
5023;DHT22;2530;47.990;7.866;2023-02-26T09:51:00;2.50;99.90
5023;DHT22;2530;47.990;7.866;2023-02-26T09:53:36;2.50;99.90
5023;DHT22;2530;47.990;7.866;2023-02-26T09:56:09;2.30;99.90
5023;DHT22;2530;47.990;7.866;2023-02-26T09:58:39;2.30;99.90
5023;DHT22;2530;47.990;7.866;2023-02-26T10:06:58;2.20;99.90
5023;DHT22;2530;47.990;7.866;2023-02-26T10:12:13;2.10;99.90
5023;DHT22;2530;47.990;7.866;2023-02-26T10:15:00;2.20;99.90
5023;DHT22;2530;47.990;7.866;2023-02-26T10:17:41;2.40;99.90
5023;DHT22;2530;47.990;7.866;2023-02-26T10:20:22;2.50;99.90
5023;DHT22;2530;47.990;7.866;2023-02-26T10:25:43;2.30;99.90
5023;DHT22;2530;47.990;7.866;2023-02-26T10:28:40;2.20;99.90
5023;DHT22;2530;47.990;7.866;2023-02-26T10:40:56;2.30;99.90
5023;DHT22;2530;47.990;7.866;2023-02-26T10:51:36;2.00;99.90
5023;DHT22;2530;47.990;7.866;2023-02-26T10:54:26;1.70;1.00
5023;DHT22;2530;47.990;7.866;2023-02-26T10:56:54;1.70;1.00
5023;DHT22;2530;47.990;7.866;2023-02-26T10:59:20;2.00;99.90
5023;DHT22;2530;47.990;7.866;2023-02-26T11:01:46;2.40;99.90
5023;DHT22;2530;47.990;7.866;2023-02-26T11:04:15;2.70;1.00
5023;DHT22;2530;47.990;7.866;2023-02-26T11:06:51;2.70;1.00
5023;DHT22;2530;47.990;7.866;2023-02-26T11:09:27;2.70;1.00
5023;DHT22;2530;47.990;7.866;2023-02-26T11:12:05;2.80;1.00
5023;DHT22;2530;47.990;7.866;2023-02-26T11:14:32;4.20;99.90
5023;DHT22;2530;47.990;7.866;2023-02-26T11:17:00;4.20;1.00
5023;DHT22;2530;47.990;7.866;2023-02-26T11:19:36;4.40;99.90
5023;DHT22;2530;47.990;7.866;2023-02-26T11:22:04;4.00;99.90
5023;DHT22;2530;47.990;7.866;2023-02-26T11:24:36;3.90;99.90
5023;DHT22;2530;47.990;7.866;2023-02-26T11:27:10;3.70;99.90
5023;DHT22;2530;47.990;7.866;2023-02-26T11:29:39;3.40;99.90
5023;DHT22;2530;47.990;7.866;2023-02-26T11:32:06;3.60;99.90
5023;DHT22;2530;47.990;7.866;2023-02-26T11:34:32;3.60;99.90
5023;DHT22;2530;47.990;7.866;2023-02-26T11:36:59;5.70;99.90
5023;DHT22;2530;47.990;7.866;2023-02-26T11:39:32;3.20;99.90
5023;DHT22;2530;47.990;7.866;2023-02-26T11:42:00;3.30;99.90
5023;DHT22;2530;47.990;7.866;2023-02-26T11:44:39;3.40;99.90
5023;DHT22;2530;47.990;7.866;2023-02-26T11:47:18;3.60;99.90
5023;DHT22;2530;47.990;7.866;2023-02-26T11:49:53;4.40;99.90
5023;DHT22;2530;47.990;7.866;2023-02-26T11:52:28;4.90;99.90
5023;DHT22;2530;47.990;7.866;2023-02-26T11:57:44;4.90;99.90
5023;DHT22;2530;47.990;7.866;2023-02-26T12:00:29;3.70;99.90
5023;DHT22;2530;47.990;7.866;2023-02-26T12:02:59;0.20;70.00
5023;DHT22;2530;47.990;7.866;2023-02-26T12:05:26;3.30;99.90
5023;DHT22;2530;47.990;7.866;2023-02-26T12:07:52;3.20;99.90
5023;DHT22;2530;47.990;7.866;2023-02-26T12:10:27;3.70;99.90
5023;DHT22;2530;47.990;7.866;2023-02-26T12:13:16;3.30;99.90
5023;DHT22;2530;47.990;7.866;2023-02-26T12:15:56;3.40;61.40
5023;DHT22;2530;47.990;7.866;2023-02-26T12:23:59;3.40;54.00
5023;DHT22;2530;47.990;7.866;2023-02-26T12:26:33;3.30;56.20
5023;DHT22;2530;47.990;7.866;2023-02-26T12:34:18;3.90;73.00
5023;DHT22;2530;47.990;7.866;2023-02-26T12:37:17;4.00;59.40
5023;DHT22;2530;47.990;7.866;2023-02-26T12:43:06;3.80;52.70
5023;DHT22;2530;47.990;7.866;2023-02-26T12:45:55;3.70;87.40
5023;DHT22;2530;47.990;7.866;2023-02-26T12:48:33;3.80;57.30
5023;DHT22;2530;47.990;7.866;2023-02-26T12:51:29;3.60;59.60
5023;DHT22;2530;47.990;7.866;2023-02-26T13:05:17;3.30;81.50
5023;DHT22;2530;47.990;7.866;2023-02-26T13:10:45;3.40;94.30
5023;DHT22;2530;47.990;7.866;2023-02-26T13:13:43;4.10;99.90
5023;DHT22;2530;47.990;7.866;2023-02-26T13:19:36;4.60;91.10
5023;DHT22;2530;47.990;7.866;2023-02-26T13:22:11;5.20;99.90
5023;DHT22;2530;47.990;7.866;2023-02-26T13:24:45;4.30;99.90
5023;DHT22;2530;47.990;7.866;2023-02-26T13:27:14;4.40;99.90
5023;DHT22;2530;47.990;7.866;2023-02-26T13:29:57;4.10;99.90
5023;DHT22;2530;47.990;7.866;2023-02-26T13:32:25;4.10;99.90
5023;DHT22;2530;47.990;7.866;2023-02-26T13:35:05;4.00;99.90
5023;DHT22;2530;47.990;7.866;2023-02-26T13:37:40;4.00;99.90
5023;DHT22;2530;47.990;7.866;2023-02-26T13:46:11;3.70;99.90
5023;DHT22;2530;47.990;7.866;2023-02-26T13:51:39;3.10;99.90
5023;DHT22;2530;47.990;7.866;2023-02-26T14:01:53;4.50;99.90
5023;DHT22;2530;47.990;7.866;2023-02-26T14:06:51;4.00;99.90
5023;DHT22;2530;47.990;7.866;2023-02-26T14:14:33;4.50;99.90
5023;DHT22;2530;47.990;7.866;2023-02-26T14:19:43;3.80;99.90
5023;DHT22;2530;47.990;7.866;2023-02-26T14:25:15;3.90;99.90
5023;DHT22;2530;47.990;7.866;2023-02-26T14:27:44;3.60;99.90
5023;DHT22;2530;47.990;7.866;2023-02-26T14:35:45;3.20;1.00
5023;DHT22;2530;47.990;7.866;2023-02-26T14:38:13;3.00;1.00
5023;DHT22;2530;47.990;7.866;2023-02-26T14:40:55;2.60;1.00
5023;DHT22;2530;47.990;7.866;2023-02-26T14:43:40;3.10;50.20
5023;DHT22;2530;47.990;7.866;2023-02-26T14:46:07;3.40;1.00
5023;DHT22;2530;47.990;7.866;2023-02-26T14:48:35;2.50;99.90
5023;DHT22;2530;47.990;7.866;2023-02-26T14:51:12;2.60;99.90
5023;DHT22;2530;47.990;7.866;2023-02-26T14:53:57;2.10;1.00
5023;DHT22;2530;47.990;7.866;2023-02-26T14:59:40;2.40;1.00
5023;DHT22;2530;47.990;7.866;2023-02-26T15:07:58;2.80;1.00
5023;DHT22;2530;47.990;7.866;2023-02-26T15:16:13;3.20;99.90
5023;DHT22;2530;47.990;7.866;2023-02-26T15:23:50;3.10;99.90
5023;DHT22;2530;47.990;7.866;2023-02-26T15:28:50;2.90;1.00
5023;DHT22;2530;47.990;7.866;2023-02-26T15:31:19;3.40;99.90
5023;DHT22;2530;47.990;7.866;2023-02-26T15:33:47;4.70;1.00
5023;DHT22;2530;47.990;7.866;2023-02-26T15:36:17;4.40;99.90
5023;DHT22;2530;47.990;7.866;2023-02-26T15:38:57;3.70;99.90
5023;DHT22;2530;47.990;7.866;2023-02-26T15:41:25;3.10;1.00
5023;DHT22;2530;47.990;7.866;2023-02-26T15:43:59;3.30;1.00
5023;DHT22;2530;47.990;7.866;2023-02-26T15:46:34;2.80;10.90
5023;DHT22;2530;47.990;7.866;2023-02-26T15:49:08;2.60;98.90
5023;DHT22;2530;47.990;7.866;2023-02-26T15:51:36;2.50;99.90
5023;DHT22;2530;47.990;7.866;2023-02-26T15:54:02;2.60;99.90
5023;DHT22;2530;47.990;7.866;2023-02-26T15:56:33;2.50;1.00
5023;DHT22;2530;47.990;7.866;2023-02-26T15:59:22;2.90;99.90
5023;DHT22;2530;47.990;7.866;2023-02-26T16:01:49;3.00;1.00
5023;DHT22;2530;47.990;7.866;2023-02-26T16:04:17;2.70;99.90
5023;DHT22;2530;47.990;7.866;2023-02-26T16:06:47;2.50;1.00
5023;DHT22;2530;47.990;7.866;2023-02-26T16:09:39;2.30;1.00
5023;DHT22;2530;47.990;7.866;2023-02-26T16:12:20;2.30;99.90
5023;DHT22;2530;47.990;7.866;2023-02-26T16:14:50;2.20;99.90
5023;DHT22;2530;47.990;7.866;2023-02-26T16:17:27;2.00;1.00
5023;DHT22;2530;47.990;7.866;2023-02-26T16:19:55;1.70;99.90
5023;DHT22;2530;47.990;7.866;2023-02-26T16:22:29;1.90;1.00
5023;DHT22;2530;47.990;7.866;2023-02-26T16:27:28;1.90;1.00
5023;DHT22;2530;47.990;7.866;2023-02-26T16:29:58;2.10;99.90
5023;DHT22;2530;47.990;7.866;2023-02-26T16:32:27;2.40;99.90
5023;DHT22;2530;47.990;7.866;2023-02-26T16:34:56;2.40;99.90
5023;DHT22;2530;47.990;7.866;2023-02-26T16:47:59;2.20;1.00
5023;DHT22;2530;47.990;7.866;2023-02-26T16:50:27;2.30;1.00
5023;DHT22;2530;47.990;7.866;2023-02-26T16:53:01;2.20;1.00
5023;DHT22;2530;47.990;7.866;2023-02-26T16:55:33;2.30;1.00
5023;DHT22;2530;47.990;7.866;2023-02-26T16:58:01;2.30;1.00
5023;DHT22;2530;47.990;7.866;2023-02-26T17:00:30;2.40;1.00
5023;DHT22;2530;47.990;7.866;2023-02-26T17:03:20;2.20;1.00
5023;DHT22;2530;47.990;7.866;2023-02-26T17:08:20;2.30;1.00
5023;DHT22;2530;47.990;7.866;2023-02-26T17:11:08;1.90;1.00
5023;DHT22;2530;47.990;7.866;2023-02-26T17:13:42;2.30;1.00
5023;DHT22;2530;47.990;7.866;2023-02-26T17:16:10;2.50;1.00
5023;DHT22;2530;47.990;7.866;2023-02-26T17:18:36;2.20;1.00
5023;DHT22;2530;47.990;7.866;2023-02-26T17:21:02;2.20;1.00
5023;DHT22;2530;47.990;7.866;2023-02-26T17:23:31;2.30;1.00
5023;DHT22;2530;47.990;7.866;2023-02-26T17:25:57;2.20;18.80
5023;DHT22;2530;47.990;7.866;2023-02-26T17:28:28;2.00;1.00
5023;DHT22;2530;47.990;7.866;2023-02-26T17:30:54;2.20;1.00
5023;DHT22;2530;47.990;7.866;2023-02-26T17:33:20;2.10;1.00
5023;DHT22;2530;47.990;7.866;2023-02-26T17:35:46;2.30;1.00
5023;DHT22;2530;47.990;7.866;2023-02-26T17:38:13;2.00;1.00
5023;DHT22;2530;47.990;7.866;2023-02-26T17:40:41;2.10;1.00
5023;DHT22;2530;47.990;7.866;2023-02-26T17:43:07;2.60;1.00
5023;DHT22;2530;47.990;7.866;2023-02-26T17:45:35;2.30;1.00
5023;DHT22;2530;47.990;7.866;2023-02-26T17:48:01;2.90;1.00
5023;DHT22;2530;47.990;7.866;2023-02-26T17:53:08;1.90;99.90
5023;DHT22;2530;47.990;7.866;2023-02-26T17:55:35;1.80;1.00
5023;DHT22;2530;47.990;7.866;2023-02-26T17:58:04;1.90;99.90
5023;DHT22;2530;47.990;7.866;2023-02-26T18:00:30;2.20;99.90
5023;DHT22;2530;47.990;7.866;2023-02-26T18:02:57;2.00;99.90
5023;DHT22;2530;47.990;7.866;2023-02-26T18:05:24;2.00;6.50
5023;DHT22;2530;47.990;7.866;2023-02-26T18:07:52;1.90;1.00
5023;DHT22;2530;47.990;7.866;2023-02-26T18:10:20;2.00;1.00
5023;DHT22;2530;47.990;7.866;2023-02-26T18:12:46;2.10;38.40
5023;DHT22;2530;47.990;7.866;2023-02-26T18:15:12;2.30;1.00
5023;DHT22;2530;47.990;7.866;2023-02-26T18:17:38;2.40;1.00
5023;DHT22;2530;47.990;7.866;2023-02-26T18:20:05;2.20;1.00
5023;DHT22;2530;47.990;7.866;2023-02-26T18:22:34;2.20;1.00
5023;DHT22;2530;47.990;7.866;2023-02-26T18:24:59;2.10;1.00
5023;DHT22;2530;47.990;7.866;2023-02-26T18:27:26;2.20;1.00
5023;DHT22;2530;47.990;7.866;2023-02-26T18:29:52;2.30;1.00
5023;DHT22;2530;47.990;7.866;2023-02-26T18:32:23;2.10;1.00
5023;DHT22;2530;47.990;7.866;2023-02-26T18:34:50;2.50;99.90
5023;DHT22;2530;47.990;7.866;2023-02-26T18:37:18;2.40;99.90
5023;DHT22;2530;47.990;7.866;2023-02-26T18:39:44;2.10;1.00
5023;DHT22;2530;47.990;7.866;2023-02-26T18:42:27;2.30;99.90
5023;DHT22;2530;47.990;7.866;2023-02-26T18:44:53;2.30;1.00
5023;DHT22;2530;47.990;7.866;2023-02-26T18:47:20;2.20;99.90
5023;DHT22;2530;47.990;7.866;2023-02-26T18:49:47;2.20;99.90
5023;DHT22;2530;47.990;7.866;2023-02-26T18:52:13;2.60;99.90
5023;DHT22;2530;47.990;7.866;2023-02-26T18:54:39;2.50;99.90
5023;DHT22;2530;47.990;7.866;2023-02-26T18:57:05;2.50;99.90
5023;DHT22;2530;47.990;7.866;2023-02-26T18:59:31;2.60;99.90
5023;DHT22;2530;47.990;7.866;2023-02-26T19:01:59;2.30;99.90
5023;DHT22;2530;47.990;7.866;2023-02-26T19:04:24;2.20;99.90
5023;DHT22;2530;47.990;7.866;2023-02-26T19:06:50;2.40;99.90
5023;DHT22;2530;47.990;7.866;2023-02-26T19:09:16;2.30;1.00
5023;DHT22;2530;47.990;7.866;2023-02-26T19:11:41;2.20;99.90
5023;DHT22;2530;47.990;7.866;2023-02-26T19:14:07;2.20;99.90
5023;DHT22;2530;47.990;7.866;2023-02-26T19:16:32;2.10;1.00
5023;DHT22;2530;47.990;7.866;2023-02-26T19:19:02;2.40;99.90
5023;DHT22;2530;47.990;7.866;2023-02-26T19:21:30;2.20;99.90
5023;DHT22;2530;47.990;7.866;2023-02-26T19:23:59;2.20;1.00
5023;DHT22;2530;47.990;7.866;2023-02-26T19:26:24;2.40;99.90
5023;DHT22;2530;47.990;7.866;2023-02-26T19:28:50;2.30;99.90
5023;DHT22;2530;47.990;7.866;2023-02-26T19:31:15;2.20;99.90
5023;DHT22;2530;47.990;7.866;2023-02-26T19:33:41;2.10;1.00
5023;DHT22;2530;47.990;7.866;2023-02-26T19:36:06;2.70;99.90
5023;DHT22;2530;47.990;7.866;2023-02-26T19:38:32;2.40;99.90
5023;DHT22;2530;47.990;7.866;2023-02-26T19:40:58;2.30;99.90
5023;DHT22;2530;47.990;7.866;2023-02-26T19:43:24;2.10;99.90